PRIVATE WETTERSTATION BILLIGHEIM-ALLFELD                       ZURCK
Wetterdaten: Montag, 23.01.2017
Datum Zeit Temp. A. Temp. A. min Temp. A. max Feuchte A. Luftdruck Regen Wind Richtung Richtung Sonnenschein ET Solar Taupunkt Windchill Windben Empfang
23.01.2017 00:00 -12,1 C -12,1 C -11,8 C 90 % 1026,1 hPa 0,0 l/m 0,0 km/h (0 Bft) N 360 0 min 0,000 mm 0 W/m -13,4 C -12,1 C 3,2 km/h (1 Bft) 100 %
23.01.2017 00:10 -12,0 C -12,1 C -12,0 C 90 % 1026,2 hPa 0,0 l/m 0,0 km/h (0 Bft) N 0 0 min 0,000 mm 0 W/m -13,3 C -12,0 C 0,0 km/h (0 Bft) 100 %
23.01.2017 00:20 -12,1 C -12,1 C -12,0 C 90 % 1026,3 hPa 0,0 l/m 0,0 km/h (0 Bft) N 0 0 min 0,000 mm 0 W/m -13,4 C -12,1 C 0,0 km/h (0 Bft) 91 %
23.01.2017 00:30 -12,2 C -12,2 C -12,1 C 90 % 1026,2 hPa 0,0 l/m 0,0 km/h (0 Bft) N 0 0 min 0,000 mm 0 W/m -13,5 C -12,2 C 0,0 km/h (0 Bft) 100 %
23.01.2017 00:40 -12,1 C -12,2 C -12,1 C 90 % 1026,1 hPa 0,0 l/m 0,0 km/h (0 Bft) N 0 0 min 0,000 mm 0 W/m -13,4 C -12,1 C 0,0 km/h (0 Bft) 99 %
23.01.2017 00:50 -12,0 C -12,1 C -12,0 C 91 % 1026,0 hPa 0,0 l/m 0,0 km/h (0 Bft) N 0 0 min 0,000 mm 0 W/m -13,2 C -12,0 C 0,0 km/h (0 Bft) 100 %
23.01.2017 01:00 -12,0 C -12,0 C -11,9 C 91 % 1026,0 hPa 0,0 l/m 0,0 km/h (0 Bft) N 0 0 min 0,000 mm 0 W/m -13,2 C -12,0 C 0,0 km/h (0 Bft) 100 %
23.01.2017 01:10 -12,2 C -12,2 C -12,0 C 90 % 1026,1 hPa 0,0 l/m 0,0 km/h (0 Bft) N 0 0 min 0,000 mm 0 W/m -13,5 C -12,2 C 0,0 km/h (0 Bft) 100 %
23.01.2017 01:20 -12,4 C -12,4 C -12,2 C 90 % 1026,1 hPa 0,0 l/m 0,0 km/h (0 Bft) N 0 0 min 0,000 mm 0 W/m -13,7 C -12,4 C 0,0 km/h (0 Bft) 99 %
23.01.2017 01:30 -12,4 C -12,4 C -12,4 C 90 % 1026,1 hPa 0,0 l/m 0,0 km/h (0 Bft) N 0 0 min 0,000 mm 0 W/m -13,7 C -12,4 C 0,0 km/h (0 Bft) 97 %
23.01.2017 01:40 -12,6 C -12,6 C -12,4 C 90 % 1026,1 hPa 0,0 l/m 0,0 km/h (0 Bft) N 0 0 min 0,000 mm 0 W/m -13,9 C -12,6 C 0,0 km/h (0 Bft) 98 %
23.01.2017 01:50 -12,7 C -12,7 C -12,6 C 90 % 1026,1 hPa 0,0 l/m 0,0 km/h (0 Bft) N 0 0 min 0,000 mm 0 W/m -14,0 C -12,7 C 0,0 km/h (0 Bft) 97 %
23.01.2017 02:00 -12,6 C -12,7 C -12,6 C 91 % 1026,1 hPa 0,0 l/m 0,0 km/h (0 Bft) N 0 0 min 0,000 mm 0 W/m -13,8 C -12,6 C 0,0 km/h (0 Bft) 98 %
23.01.2017 02:10 -12,7 C -12,7 C -12,6 C 90 % 1026,0 hPa 0,0 l/m 0,0 km/h (0 Bft) N 0 0 min 0,000 mm 0 W/m -14,0 C -12,7 C 0,0 km/h (0 Bft) 97 %
23.01.2017 02:20 -13,0 C -13,0 C -12,7 C 89 % 1025,9 hPa 0,0 l/m 0,0 km/h (0 Bft) N 0 0 min 0,000 mm 0 W/m -14,4 C -13,0 C 0,0 km/h (0 Bft) 98 %
23.01.2017 02:30 -13,3 C -13,3 C -13,1 C 89 % 1026,0 hPa 0,0 l/m 0,0 km/h (0 Bft) N 0 0 min 0,000 mm 0 W/m -14,7 C -13,3 C 0,0 km/h (0 Bft) 98 %
23.01.2017 02:40 -13,3 C -13,3 C -13,2 C 90 % 1026,0 hPa 0,0 l/m 0,0 km/h (0 Bft) N 0 0 min 0,000 mm 0 W/m -14,6 C -13,3 C 0,0 km/h (0 Bft) 98 %
23.01.2017 02:50 -13,3 C -13,3 C -13,2 C 90 % 1026,0 hPa 0,0 l/m 0,0 km/h (0 Bft) N 0 0 min 0,000 mm 0 W/m -14,6 C -13,3 C 0,0 km/h (0 Bft) 98 %
23.01.2017 03:00 -13,3 C -13,3 C -13,3 C 90 % 1025,9 hPa 0,0 l/m 0,0 km/h (0 Bft) N 0 0 min 0,000 mm 0 W/m -14,6 C -13,3 C 0,0 km/h (0 Bft) 98 %
23.01.2017 03:10 -13,3 C -13,3 C -13,3 C 90 % 1026,0 hPa 0,0 l/m 0,0 km/h (0 Bft) N 0 0 min 0,000 mm 0 W/m -14,6 C -13,3 C 0,0 km/h (0 Bft) 88 %
23.01.2017 03:20 -13,6 C -13,6 C -13,3 C 89 % 1026,0 hPa 0,0 l/m 0,0 km/h (0 Bft) N 0 0 min 0,000 mm 0 W/m -15,0 C -13,6 C 0,0 km/h (0 Bft) 97 %
23.01.2017 03:30 -13,7 C -13,7 C -13,6 C 89 % 1026,0 hPa 0,0 l/m 0,0 km/h (0 Bft) N 0 0 min 0,000 mm 0 W/m -15,1 C -13,7 C 0,0 km/h (0 Bft) 98 %
23.01.2017 03:40 -13,7 C -13,7 C -13,7 C 90 % 1026,1 hPa 0,0 l/m 0,0 km/h (0 Bft) N 0 0 min 0,000 mm 0 W/m -15,0 C -13,7 C 0,0 km/h (0 Bft) 100 %
23.01.2017 03:50 -13,5 C -13,7 C -13,5 C 90 % 1026,1 hPa 0,0 l/m 0,0 km/h (0 Bft) N 0 0 min 0,000 mm 0 W/m -14,8 C -13,5 C 0,0 km/h (0 Bft) 100 %
23.01.2017 04:00 -13,6 C -13,6 C -13,5 C 90 % 1026,1 hPa 0,0 l/m 0,0 km/h (0 Bft) N 0 0 min 0,000 mm 0 W/m -14,9 C -13,6 C 0,0 km/h (0 Bft) 100 %
23.01.2017 04:10 -13,6 C -13,6 C -13,6 C 90 % 1026,1 hPa 0,0 l/m 0,0 km/h (0 Bft) N 0 0 min 0,000 mm 0 W/m -14,9 C -13,6 C 0,0 km/h (0 Bft) 100 %
23.01.2017 04:20 -13,7 C -13,7 C -13,6 C 89 % 1026,1 hPa 0,0 l/m 0,0 km/h (0 Bft) N 0 0 min 0,000 mm 0 W/m -15,1 C -13,7 C 0,0 km/h (0 Bft) 100 %
23.01.2017 04:30 -14,1 C -14,1 C -13,7 C 88 % 1026,1 hPa 0,0 l/m 0,0 km/h (0 Bft) N 0 0 min 0,000 mm 0 W/m -15,6 C -14,1 C 0,0 km/h (0 Bft) 100 %
23.01.2017 04:40 -14,5 C -14,5 C -14,1 C 88 % 1026,0 hPa 0,0 l/m 0,0 km/h (0 Bft) N 0 0 min 0,000 mm 0 W/m -16,0 C -14,5 C 0,0 km/h (0 Bft) 100 %
23.01.2017 04:50 -14,7 C -14,7 C -14,5 C 88 % 1026,0 hPa 0,0 l/m 0,0 km/h (0 Bft) N 0 0 min 0,000 mm 0 W/m -16,2 C -14,7 C 0,0 km/h (0 Bft) 100 %
23.01.2017 05:00 -14,8 C -14,8 C -14,7 C 88 % 1026,0 hPa 0,0 l/m 0,0 km/h (0 Bft) N 0 0 min 0,000 mm 0 W/m -16,3 C -14,8 C 0,0 km/h (0 Bft) 90 %
23.01.2017 05:10 -15,0 C -15,0 C -14,8 C 88 % 1026,0 hPa 0,0 l/m 0,0 km/h (0 Bft) N 0 0 min 0,000 mm 0 W/m -16,5 C -15,0 C 0,0 km/h (0 Bft) 99 %
23.01.2017 05:20 -15,1 C -15,1 C -15,0 C 88 % 1026,1 hPa 0,0 l/m 0,0 km/h (0 Bft) N 0 0 min 0,000 mm 0 W/m -16,6 C -15,1 C 0,0 km/h (0 Bft) 100 %
23.01.2017 05:30 -15,2 C -15,2 C -15,1 C 88 % 1026,1 hPa 0,0 l/m 0,0 km/h (0 Bft) N 0 0 min 0,000 mm 0 W/m -16,7 C -15,2 C 0,0 km/h (0 Bft) 100 %
23.01.2017 05:40 -15,2 C -15,2 C -15,2 C 88 % 1026,0 hPa 0,0 l/m 0,0 km/h (0 Bft) N 0 0 min 0,000 mm 0 W/m -16,7 C -15,2 C 0,0 km/h (0 Bft) 89 %
23.01.2017 05:50 -15,3 C -15,3 C -15,2 C 88 % 1026,1 hPa 0,0 l/m 0,0 km/h (0 Bft) N 0 0 min 0,000 mm 0 W/m -16,8 C -15,3 C 0,0 km/h (0 Bft) 100 %
23.01.2017 06:00 -15,4 C -15,4 C -15,3 C 88 % 1026,2 hPa 0,0 l/m 0,0 km/h (0 Bft) N 0 0 min 0,000 mm 0 W/m -16,9 C -15,4 C 0,0 km/h (0 Bft) 100 %
23.01.2017 06:10 -15,5 C -15,5 C -15,4 C 88 % 1026,3 hPa 0,0 l/m 0,0 km/h (0 Bft) N 0 0 min 0,000 mm 0 W/m -17,0 C -15,5 C 0,0 km/h (0 Bft) 100 %
23.01.2017 06:20 -15,6 C -15,6 C -15,5 C 88 % 1026,3 hPa 0,0 l/m 0,0 km/h (0 Bft) N 0 0 min 0,000 mm 0 W/m -17,1 C -15,6 C 0,0 km/h (0 Bft) 100 %
23.01.2017 06:30 -15,6 C -15,6 C -15,6 C 88 % 1026,3 hPa 0,0 l/m 0,0 km/h (0 Bft) N 0 0 min 0,000 mm 0 W/m -17,1 C -15,6 C 0,0 km/h (0 Bft) 100 %
23.01.2017 06:40 -15,4 C -15,6 C -15,4 C 89 % 1026,4 hPa 0,0 l/m 0,0 km/h (0 Bft) N 0 0 min 0,000 mm 0 W/m -16,8 C -15,4 C 0,0 km/h (0 Bft) 100 %
23.01.2017 06:50 -15,3 C -15,4 C -15,3 C 89 % 1026,4 hPa 0,0 l/m 0,0 km/h (0 Bft) N 0 0 min 0,000 mm 0 W/m -16,7 C -15,3 C 0,0 km/h (0 Bft) 99 %
23.01.2017 07:00 -15,2 C -15,3 C -15,2 C 89 % 1026,3 hPa 0,0 l/m 0,0 km/h (0 Bft) N 0 0 min 0,000 mm 0 W/m -16,6 C -15,2 C 0,0 km/h (0 Bft) 92 %
23.01.2017 07:10 -15,0 C -15,2 C -15,0 C 89 % 1026,4 hPa 0,0 l/m 0,0 km/h (0 Bft) N 0 0 min 0,000 mm 0 W/m -16,4 C -15,0 C 0,0 km/h (0 Bft) 100 %
23.01.2017 07:20 -14,9 C -15,0 C -14,9 C 89 % 1026,4 hPa 0,0 l/m 0,0 km/h (0 Bft) N 0 0 min 0,000 mm 0 W/m -16,3 C -14,9 C 0,0 km/h (0 Bft) 100 %
23.01.2017 07:30 -14,9 C -15,0 C -14,9 C 89 % 1026,4 hPa 0,0 l/m 0,0 km/h (0 Bft) N 0 0 min 0,000 mm 0 W/m -16,3 C -14,9 C 0,0 km/h (0 Bft) 100 %
23.01.2017 07:40 -14,8 C -14,9 C -14,8 C 89 % 1026,3 hPa 0,0 l/m 0,0 km/h (0 Bft) N 0 0 min 0,000 mm 0 W/m -16,2 C -14,8 C 0,0 km/h (0 Bft) 100 %
23.01.2017 07:50 -14,6 C -14,8 C -14,6 C 90 % 1026,3 hPa 0,0 l/m 0,0 km/h (0 Bft) N 0 0 min 0,000 mm 0 W/m -15,9 C -14,6 C 0,0 km/h (0 Bft) 100 %
23.01.2017 08:00 -14,4 C -14,6 C -14,4 C 91 % 1026,4 hPa 0,0 l/m 0,0 km/h (0 Bft) N 0 0 min 0,000 mm 0 W/m -15,5 C -14,4 C 0,0 km/h (0 Bft) 100 %
23.01.2017 08:10 -14,3 C -14,4 C -14,3 C 91 % 1026,4 hPa 0,0 l/m 0,0 km/h (0 Bft) N 0 0 min 0,000 mm 5 W/m -15,4 C -14,3 C 0,0 km/h (0 Bft) 87 %
23.01.2017 08:20 -14,5 C -14,5 C -14,3 C 90 % 1026,5 hPa 0,0 l/m 0,0 km/h (0 Bft) N 0 0 min 0,000 mm 9 W/m -15,8 C -14,5 C 0,0 km/h (0 Bft) 100 %
23.01.2017 08:30 -14,6 C -14,7 C -14,5 C 90 % 1026,5 hPa 0,0 l/m 0,0 km/h (0 Bft) N 0 0 min 0,000 mm 14 W/m -15,9 C -14,6 C 0,0 km/h (0 Bft) 100 %
23.01.2017 08:40 -14,6 C -14,7 C -14,6 C 90 % 1026,6 hPa 0,0 l/m 0,0 km/h (0 Bft) N 0 0 min 0,000 mm 21 W/m -15,9 C -14,6 C 0,0 km/h (0 Bft) 100 %
23.01.2017 08:50 -14,4 C -14,6 C -14,4 C 90 % 1026,7 hPa 0,0 l/m 0,0 km/h (0 Bft) N 0 0 min 0,000 mm 28 W/m -15,7 C -14,4 C 0,0 km/h (0 Bft) 100 %
23.01.2017 09:00 -14,3 C -14,4 C -14,3 C 90 % 1026,8 hPa 0,0 l/m 0,0 km/h (0 Bft) N 0 0 min 0,000 mm 37 W/m -15,6 C -14,3 C 0,0 km/h (0 Bft) 100 %
23.01.2017 09:10 -14,1 C -14,3 C -14,1 C 90 % 1027,0 hPa 0,0 l/m 0,0 km/h (0 Bft) N 0 0 min 0,000 mm 49 W/m -15,4 C -14,1 C 0,0 km/h (0 Bft) 100 %
23.01.2017 09:20 -13,8 C -14,1 C -13,8 C 90 % 1027,1 hPa 0,0 l/m 0,0 km/h (0 Bft) N 0 0 min 0,000 mm 53 W/m -15,1 C -13,8 C 0,0 km/h (0 Bft) 100 %
23.01.2017 09:30 -13,6 C -13,8 C -13,6 C 91 % 1027,1 hPa 0,0 l/m 0,0 km/h (0 Bft) N 0 0 min 0,000 mm 60 W/m -14,7 C -13,6 C 0,0 km/h (0 Bft) 90 %
23.01.2017 09:40 -13,2 C -13,6 C -13,2 C 91 % 1027,0 hPa 0,0 l/m 0,0 km/h (0 Bft) N 0 0 min 0,000 mm 77 W/m -14,3 C -13,2 C 0,0 km/h (0 Bft) 100 %
23.01.2017 09:50 -12,7 C -13,2 C -12,7 C 91 % 1027,1 hPa 0,0 l/m 0,0 km/h (0 Bft) N 0 0 min 0,000 mm 128 W/m -13,9 C -12,7 C 0,0 km/h (0 Bft) 100 %
23.01.2017 10:00 -12,1 C -12,7 C -12,1 C 91 % 1027,2 hPa 0,0 l/m 0,0 km/h (0 Bft) N 0 0 min 0,025 mm 132 W/m -13,3 C -12,1 C 0,0 km/h (0 Bft) 99 %
23.01.2017 10:10 -11,9 C -12,1 C -11,9 C 91 % 1027,4 hPa 0,0 l/m 0,0 km/h (0 Bft) N 0 0 min 0,000 mm 111 W/m -13,1 C -11,9 C 0,0 km/h (0 Bft) 90 %
23.01.2017 10:20 -11,9 C -11,9 C -11,9 C 91 % 1027,4 hPa 0,0 l/m 0,0 km/h (0 Bft) N 360 0 min 0,000 mm 114 W/m -13,1 C -11,9 C 1,6 km/h (1 Bft) 100 %
23.01.2017 10:30 -11,9 C -11,9 C -11,8 C 91 % 1027,4 hPa 0,0 l/m 0,0 km/h (0 Bft) N 360 0 min 0,000 mm 118 W/m -13,1 C -11,9 C 3,2 km/h (1 Bft) 100 %
23.01.2017 10:40 -11,7 C -11,9 C -11,7 C 91 % 1027,3 hPa 0,0 l/m 0,0 km/h (0 Bft) S-SW 202 0 min 0,000 mm 118 W/m -12,9 C -11,7 C 4,8 km/h (1 Bft) 100 %
23.01.2017 10:50 -11,4 C -11,7 C -11,4 C 91 % 1027,5 hPa 0,0 l/m 3,2 km/h (1 Bft) S-SW 202 0 min 0,000 mm 121 W/m -12,6 C -11,4 C 6,4 km/h (2 Bft) 100 %
23.01.2017 11:00 -11,1 C -11,4 C -11,1 C 91 % 1027,7 hPa 0,0 l/m 0,0 km/h (0 Bft) S-SW 202 0 min 0,025 mm 127 W/m -12,3 C -11,1 C 3,2 km/h (1 Bft) 100 %
23.01.2017 11:10 -10,8 C -11,1 C -10,8 C 91 % 1027,5 hPa 0,0 l/m 0,0 km/h (0 Bft) N 0 0 min 0,000 mm 132 W/m -12,0 C -10,8 C 0,0 km/h (0 Bft) 100 %
23.01.2017 11:20 -10,6 C -10,8 C -10,6 C 91 % 1027,4 hPa 0,0 l/m 0,0 km/h (0 Bft) N 0 0 min 0,000 mm 151 W/m -11,8 C -10,6 C 0,0 km/h (0 Bft) 100 %
23.01.2017 11:30 -10,7 C -10,7 C -10,6 C 91 % 1027,3 hPa 0,0 l/m 0,0 km/h (0 Bft) N 0 10 min 0,000 mm 162 W/m -11,9 C -10,7 C 0,0 km/h (0 Bft) 100 %
23.01.2017 11:40 -10,6 C -10,7 C -10,6 C 91 % 1027,1 hPa 0,0 l/m 0,0 km/h (0 Bft) N 0 10 min 0,000 mm 188 W/m -11,8 C -10,6 C 0,0 km/h (0 Bft) 100 %
23.01.2017 11:50 -10,6 C -10,7 C -10,6 C 91 % 1027,1 hPa 0,0 l/m 0,0 km/h (0 Bft) N 0 10 min 0,000 mm 197 W/m -11,8 C -10,6 C 0,0 km/h (0 Bft) 87 %
23.01.2017 12:00 -10,1 C -10,6 C -10,1 C 91 % 1027,1 hPa 0,0 l/m 0,0 km/h (0 Bft) N 0 10 min 0,025 mm 244 W/m -11,3 C -10,1 C 0,0 km/h (0 Bft) 100 %
23.01.2017 12:10 -9,6 C -10,1 C -9,6 C 92 % 1027,0 hPa 0,0 l/m 0,0 km/h (0 Bft) N 0 10 min 0,000 mm 255 W/m -10,6 C -9,6 C 0,0 km/h (0 Bft) 100 %
23.01.2017 12:20 -9,1 C -9,6 C -9,1 C 91 % 1026,9 hPa 0,0 l/m 0,0 km/h (0 Bft) N 0 10 min 0,000 mm 265 W/m -10,3 C -9,1 C 0,0 km/h (0 Bft) 100 %
23.01.2017 12:30 -8,6 C -9,1 C -8,6 C 91 % 1026,8 hPa 0,0 l/m 0,0 km/h (0 Bft) N 0 10 min 0,000 mm 283 W/m -9,8 C -8,6 C 0,0 km/h (0 Bft) 100 %
23.01.2017 12:40 -8,4 C -8,6 C -8,3 C 91 % 1026,7 hPa 0,0 l/m 0,0 km/h (0 Bft) N 0 10 min 0,000 mm 285 W/m -9,6 C -8,4 C 0,0 km/h (0 Bft) 92 %
23.01.2017 12:50 -8,1 C -8,4 C -8,1 C 90 % 1026,6 hPa 0,0 l/m 0,0 km/h (0 Bft) N 0 10 min 0,000 mm 279 W/m -9,4 C -8,1 C 0,0 km/h (0 Bft) 100 %
23.01.2017 13:00 -7,8 C -8,1 C -7,8 C 90 % 1026,5 hPa 0,0 l/m 0,0 km/h (0 Bft) S-SW 202 10 min 0,051 mm 276 W/m -9,1 C -7,8 C 3,2 km/h (1 Bft) 100 %
23.01.2017 13:10 -7,8 C -7,8 C -7,7 C 89 % 1026,4 hPa 0,0 l/m 1,6 km/h (1 Bft) S-SW 202 10 min 0,000 mm 285 W/m -9,3 C -7,8 C 3,2 km/h (1 Bft) 100 %
23.01.2017 13:20 -7,4 C -7,8 C -7,4 C 89 % 1026,4 hPa 0,0 l/m 0,0 km/h (0 Bft) S-SW 202 10 min 0,000 mm 295 W/m -8,9 C -7,4 C 1,6 km/h (1 Bft) 100 %
23.01.2017 13:30 -7,0 C -7,4 C -7,0 C 89 % 1026,2 hPa 0,0 l/m 0,0 km/h (0 Bft) N 0 10 min 0,000 mm 287 W/m -8,5 C -7,0 C 0,0 km/h (0 Bft) 100 %
23.01.2017 13:40 -6,8 C -7,0 C -6,8 C 87 % 1026,2 hPa 0,0 l/m 0,0 km/h (0 Bft) N 0 10 min 0,000 mm 272 W/m -8,6 C -6,8 C 0,0 km/h (0 Bft) 100 %
23.01.2017 13:50 -6,5 C -6,8 C -6,5 C 86 % 1025,9 hPa 0,0 l/m 0,0 km/h (0 Bft) S-SW 202 10 min 0,000 mm 272 W/m -8,4 C -6,5 C 3,2 km/h (1 Bft) 100 %
23.01.2017 14:00 -6,4 C -6,6 C -6,4 C 85 % 1026,0 hPa 0,0 l/m 0,0 km/h (0 Bft) N 0 10 min 0,051 mm 271 W/m -8,5 C -6,4 C 0,0 km/h (0 Bft) 100 %
23.01.2017 14:10 -6,2 C -6,4 C -6,2 C 85 % 1026,0 hPa 0,0 l/m 1,6 km/h (1 Bft) S-SW 202 10 min 0,000 mm 250 W/m -8,3 C -6,2 C 4,8 km/h (1 Bft) 100 %
23.01.2017 14:20 -6,0 C -6,2 C -6,0 C 85 % 1025,8 hPa 0,0 l/m 0,0 km/h (0 Bft) S-SW 202 10 min 0,000 mm 234 W/m -8,1 C -6,0 C 1,6 km/h (1 Bft) 100 %
23.01.2017 14:30 -6,0 C -6,0 C -5,9 C 83 % 1025,8 hPa 0,0 l/m 0,0 km/h (0 Bft) S-SW 202 10 min 0,000 mm 234 W/m -8,4 C -6,0 C 3,2 km/h (1 Bft) 100 %
23.01.2017 14:40 -5,8 C -6,0 C -5,8 C 84 % 1025,8 hPa 0,0 l/m 0,0 km/h (0 Bft) S-SW 202 10 min 0,000 mm 213 W/m -8,1 C -5,8 C 3,2 km/h (1 Bft) 100 %
23.01.2017 14:50 -5,8 C -5,8 C -5,7 C 83 % 1025,8 hPa 0,0 l/m 0,0 km/h (0 Bft) N 0 10 min 0,000 mm 197 W/m -8,2 C -5,8 C 0,0 km/h (0 Bft) 100 %
23.01.2017 15:00 -6,2 C -6,2 C -5,8 C 83 % 1025,9 hPa 0,0 l/m 0,0 km/h (0 Bft) S-SW 202 10 min 0,051 mm 185 W/m -8,6 C -6,2 C 1,6 km/h (1 Bft) 100 %
23.01.2017 15:10 -6,4 C -6,4 C -6,2 C 84 % 1025,9 hPa 0,0 l/m 0,0 km/h (0 Bft) N 0 0 min 0,000 mm 105 W/m -8,6 C -6,4 C 0,0 km/h (0 Bft) 100 %
23.01.2017 15:20 -6,6 C -6,6 C -6,4 C 86 % 1026,0 hPa 0,0 l/m 1,6 km/h (1 Bft) S-SW 202 0 min 0,000 mm 77 W/m -8,5 C -6,6 C 4,8 km/h (1 Bft) 90 %
23.01.2017 15:30 -6,8 C -6,8 C -6,6 C 86 % 1026,1 hPa 0,0 l/m 1,6 km/h (1 Bft) S-SW 202 0 min 0,000 mm 63 W/m -8,7 C -6,8 C 4,8 km/h (1 Bft) 100 %
23.01.2017 15:40 -6,8 C -6,8 C -6,8 C 86 % 1026,0 hPa 0,0 l/m 3,2 km/h (1 Bft) S-SW 202 0 min 0,000 mm 58 W/m -8,7 C -6,8 C 4,8 km/h (1 Bft) 100 %
23.01.2017 15:50 -6,8 C -6,8 C -6,8 C 86 % 1026,1 hPa 0,0 l/m 1,6 km/h (1 Bft) S-SW 202 0 min 0,000 mm 53 W/m -8,7 C -6,8 C 4,8 km/h (1 Bft) 100 %
23.01.2017 16:00 -7,3 C -7,3 C -6,8 C 85 % 1026,0 hPa 0,0 l/m 0,0 km/h (0 Bft) N 0 0 min 0,025 mm 46 W/m -9,4 C -7,3 C 0,0 km/h (0 Bft) 100 %
23.01.2017 16:10 -7,6 C -7,6 C -7,3 C 87 % 1026,1 hPa 0,0 l/m 0,0 km/h (0 Bft) N 0 0 min 0,000 mm 40 W/m -9,4 C -7,6 C 0,0 km/h (0 Bft) 100 %
23.01.2017 16:20 -7,6 C -7,6 C -7,6 C 87 % 1026,0 hPa 0,0 l/m 0,0 km/h (0 Bft) N 0 0 min 0,000 mm 33 W/m -9,4 C -7,6 C 0,0 km/h (0 Bft) 90 %
23.01.2017 16:30 -7,9 C -7,9 C -7,6 C 87 % 1026,2 hPa 0,0 l/m 0,0 km/h (0 Bft) N 0 0 min 0,000 mm 28 W/m -9,7 C -7,9 C 0,0 km/h (0 Bft) 100 %
23.01.2017 16:40 -8,2 C -8,2 C -7,9 C 88 % 1026,2 hPa 0,0 l/m 0,0 km/h (0 Bft) N 0 0 min 0,000 mm 21 W/m -9,8 C -8,2 C 0,0 km/h (0 Bft) 100 %
23.01.2017 16:50 -8,4 C -8,4 C -8,2 C 88 % 1026,3 hPa 0,0 l/m 0,0 km/h (0 Bft) N 0 0 min 0,000 mm 14 W/m -10,0 C -8,4 C 0,0 km/h (0 Bft) 100 %
23.01.2017 17:00 -8,3 C -8,4 C -8,3 C 90 % 1026,3 hPa 0,0 l/m 0,0 km/h (0 Bft) N 0 0 min 0,000 mm 9 W/m -9,6 C -8,3 C 0,0 km/h (0 Bft) 100 %
23.01.2017 17:10 -8,2 C -8,3 C -8,2 C 90 % 1026,3 hPa 0,0 l/m 0,0 km/h (0 Bft) N 0 0 min 0,000 mm 5 W/m -9,5 C -8,2 C 0,0 km/h (0 Bft) 93 %
23.01.2017 17:30 -8,4 C -8,4 C -8,2 C 89 % 1026,5 hPa 0,0 l/m 0,0 km/h (0 Bft) S-SW 194 0 min 0,001 mm 0 W/m -9,9 C -8,4 C 0,0 km/h (0 Bft) 99 %
23.01.2017 17:40 -8,7 C -8,7 C -8,4 C 90 % 1026,4 hPa 0,0 l/m 0,0 km/h (0 Bft) S-SW 194 0 min 0,000 mm 0 W/m -10,0 C -8,7 C 0,0 km/h (0 Bft) 99 %
23.01.2017 17:50 -8,8 C -8,8 C -8,7 C 90 % 1026,5 hPa 0,0 l/m 0,0 km/h (0 Bft) S-SW 194 0 min 0,000 mm 0 W/m -10,1 C -8,8 C 0,0 km/h (0 Bft) 100 %
23.01.2017 18:00 -9,0 C -9,0 C -8,8 C 89 % 1026,7 hPa 0,0 l/m 0,0 km/h (0 Bft) S-SW 194 0 min 0,000 mm 0 W/m -10,5 C -9,0 C 0,0 km/h (0 Bft) 99 %
23.01.2017 18:10 -9,3 C -9,3 C -9,0 C 90 % 1026,6 hPa 0,0 l/m 0,0 km/h (0 Bft) S-SW 194 0 min 0,000 mm 0 W/m -10,6 C -9,3 C 0,0 km/h (0 Bft) 100 %
23.01.2017 18:20 -9,4 C -9,4 C -9,3 C 90 % 1026,5 hPa 0,0 l/m 0,0 km/h (0 Bft) S-SW 194 0 min 0,000 mm 0 W/m -10,7 C -9,4 C 0,0 km/h (0 Bft) 99 %
23.01.2017 18:30 -9,6 C -9,6 C -9,4 C 90 % 1026,5 hPa 0,0 l/m 0,0 km/h (0 Bft) S-SW 194 0 min 0,000 mm 0 W/m -10,9 C -9,6 C 0,0 km/h (0 Bft) 99 %
23.01.2017 18:40 -9,8 C -9,8 C -9,6 C 90 % 1026,4 hPa 0,0 l/m 0,0 km/h (0 Bft) S-SW 194 0 min 0,000 mm 0 W/m -11,1 C -9,8 C 0,0 km/h (0 Bft) 100 %
23.01.2017 18:50 -9,8 C -9,8 C -9,8 C 90 % 1026,4 hPa 0,0 l/m 0,0 km/h (0 Bft) S-SW 194 0 min 0,000 mm 0 W/m -11,1 C -9,8 C 0,0 km/h (0 Bft) 99 %
23.01.2017 19:00 -9,9 C -9,9 C -9,8 C 90 % 1026,4 hPa 0,0 l/m 0,0 km/h (0 Bft) S-SW 194 0 min 0,000 mm 0 W/m -11,2 C -9,9 C 0,0 km/h (0 Bft) 100 %
23.01.2017 19:10 -10,1 C -10,1 C -9,9 C 91 % 1026,4 hPa 0,0 l/m 0,0 km/h (0 Bft) S-SW 194 0 min 0,000 mm 0 W/m -11,3 C -10,1 C 0,0 km/h (0 Bft) 99 %
23.01.2017 19:20 -10,3 C -10,3 C -10,1 C 90 % 1026,4 hPa 0,0 l/m 0,0 km/h (0 Bft) S-SW 194 0 min 0,000 mm 0 W/m -11,6 C -10,3 C 0,0 km/h (0 Bft) 95 %
23.01.2017 19:30 -10,4 C -10,4 C -10,3 C 91 % 1026,5 hPa 0,0 l/m 0,0 km/h (0 Bft) S-SW 194 0 min 0,000 mm 0 W/m -11,6 C -10,4 C 0,0 km/h (0 Bft) 96 %
23.01.2017 19:40 -10,6 C -10,6 C -10,4 C 90 % 1026,5 hPa 0,0 l/m 0,0 km/h (0 Bft) S-SW 194 0 min 0,000 mm 0 W/m -11,9 C -10,6 C 0,0 km/h (0 Bft) 100 %
23.01.2017 19:50 -10,7 C -10,7 C -10,6 C 91 % 1026,5 hPa 0,0 l/m 0,0 km/h (0 Bft) S-SW 194 0 min 0,000 mm 0 W/m -11,9 C -10,7 C 0,0 km/h (0 Bft) 99 %
23.01.2017 20:00 -10,7 C -10,8 C -10,7 C 91 % 1026,4 hPa 0,0 l/m 0,0 km/h (0 Bft) S-SW 194 0 min 0,000 mm 0 W/m -11,9 C -10,7 C 0,0 km/h (0 Bft) 100 %
23.01.2017 20:10 -10,8 C -10,8 C -10,7 C 91 % 1026,3 hPa 0,0 l/m 0,0 km/h (0 Bft) S-SW 194 0 min 0,000 mm 0 W/m -12,0 C -10,8 C 0,0 km/h (0 Bft) 98 %
23.01.2017 20:20 -10,9 C -10,9 C -10,8 C 91 % 1026,5 hPa 0,0 l/m 0,0 km/h (0 Bft) S-SW 194 0 min 0,000 mm 0 W/m -12,1 C -10,9 C 0,0 km/h (0 Bft) 100 %
23.01.2017 20:30 -11,2 C -11,2 C -10,9 C 90 % 1026,5 hPa 0,0 l/m 0,0 km/h (0 Bft) S-SW 194 0 min 0,000 mm 0 W/m -12,5 C -11,2 C 0,0 km/h (0 Bft) 100 %
23.01.2017 20:40 -11,3 C -11,3 C -11,2 C 90 % 1026,5 hPa 0,0 l/m 0,0 km/h (0 Bft) S-SW 194 0 min 0,000 mm 0 W/m -12,6 C -11,3 C 0,0 km/h (0 Bft) 100 %
23.01.2017 20:50 -11,3 C -11,3 C -11,3 C 91 % 1026,4 hPa 0,0 l/m 0,0 km/h (0 Bft) S-SW 194 0 min 0,000 mm 0 W/m -12,5 C -11,3 C 0,0 km/h (0 Bft) 100 %
23.01.2017 21:00 -11,3 C -11,3 C -11,3 C 91 % 1026,6 hPa 0,0 l/m 0,0 km/h (0 Bft) S-SW 194 0 min 0,000 mm 0 W/m -12,5 C -11,3 C 0,0 km/h (0 Bft) 100 %
23.01.2017 21:10 -11,3 C -11,3 C -11,3 C 91 % 1026,7 hPa 0,0 l/m 0,0 km/h (0 Bft) S-SW 194 0 min 0,000 mm 0 W/m -12,5 C -11,3 C 0,0 km/h (0 Bft) 100 %
23.01.2017 21:20 -11,4 C -11,4 C -11,3 C 91 % 1026,7 hPa 0,0 l/m 0,0 km/h (0 Bft) S-SW 194 0 min 0,000 mm 0 W/m -12,6 C -11,4 C 0,0 km/h (0 Bft) 100 %
23.01.2017 21:30 -11,4 C -11,4 C -11,4 C 90 % 1026,7 hPa 0,0 l/m 0,0 km/h (0 Bft) S-SW 194 0 min 0,000 mm 0 W/m -12,7 C -11,4 C 0,0 km/h (0 Bft) 91 %
23.01.2017 21:40 -11,5 C -11,5 C -11,4 C 90 % 1026,9 hPa 0,0 l/m 0,0 km/h (0 Bft) S-SW 194 0 min 0,000 mm 0 W/m -12,8 C -11,5 C 0,0 km/h (0 Bft) 100 %
23.01.2017 21:50 -11,6 C -11,6 C -11,5 C 90 % 1026,8 hPa 0,0 l/m 0,0 km/h (0 Bft) S-SW 194 0 min 0,000 mm 0 W/m -12,9 C -11,6 C 0,0 km/h (0 Bft) 100 %
23.01.2017 22:00 -11,7 C -11,7 C -11,6 C 90 % 1026,9 hPa 0,0 l/m 0,0 km/h (0 Bft) S-SW 194 0 min 0,000 mm 0 W/m -13,0 C -11,7 C 0,0 km/h (0 Bft) 100 %
23.01.2017 22:10 -11,7 C -11,7 C -11,7 C 90 % 1026,8 hPa 0,0 l/m 0,0 km/h (0 Bft) S-SW 194 0 min 0,000 mm 0 W/m -13,0 C -11,7 C 0,0 km/h (0 Bft) 100 %
23.01.2017 22:20 -11,7 C -11,7 C -11,7 C 90 % 1026,8 hPa 0,0 l/m 0,0 km/h (0 Bft) S-SW 194 0 min 0,000 mm 0 W/m -13,0 C -11,7 C 0,0 km/h (0 Bft) 97 %
23.01.2017 22:30 -11,8 C -11,8 C -11,7 C 90 % 1026,8 hPa 0,0 l/m 0,0 km/h (0 Bft) S-SW 194 0 min 0,000 mm 0 W/m -13,1 C -11,8 C 0,0 km/h (0 Bft) 100 %
23.01.2017 22:40 -12,0 C -12,0 C -11,8 C 89 % 1026,8 hPa 0,0 l/m 0,0 km/h (0 Bft) S-SW 194 0 min 0,000 mm 0 W/m -13,4 C -12,0 C 0,0 km/h (0 Bft) 91 %
23.01.2017 22:50 -12,1 C -12,1 C -12,0 C 90 % 1026,8 hPa 0,0 l/m 0,0 km/h (0 Bft) S-SW 194 0 min 0,000 mm 0 W/m -13,4 C -12,1 C 0,0 km/h (0 Bft) 99 %
23.01.2017 23:00 -12,2 C -12,2 C -12,1 C 89 % 1027,0 hPa 0,0 l/m 0,0 km/h (0 Bft) S-SW 194 0 min 0,000 mm 0 W/m -13,6 C -12,2 C 0,0 km/h (0 Bft) 99 %
23.01.2017 23:10 -12,5 C -12,5 C -12,2 C 89 % 1027,2 hPa 0,0 l/m 0,0 km/h (0 Bft) S-SW 194 0 min 0,000 mm 0 W/m -13,9 C -12,5 C 0,0 km/h (0 Bft) 99 %
23.01.2017 23:20 -12,6 C -12,7 C -12,5 C 90 % 1027,2 hPa 0,0 l/m 0,0 km/h (0 Bft) S-SW 194 0 min 0,000 mm 0 W/m -13,9 C -12,6 C 0,0 km/h (0 Bft) 100 %
23.01.2017 23:30 -12,6 C -12,7 C -12,6 C 91 % 1027,2 hPa 0,0 l/m 0,0 km/h (0 Bft) S-SW 194 0 min 0,000 mm 0 W/m -13,8 C -12,6 C 0,0 km/h (0 Bft) 100 %
23.01.2017 23:40 -12,4 C -12,6 C -12,4 C 91 % 1027,0 hPa 0,0 l/m 0,0 km/h (0 Bft) S-SW 194 0 min 0,000 mm 0 W/m -13,6 C -12,4 C 0,0 km/h (0 Bft) 90 %
23.01.2017 23:50 -12,2 C -12,4 C -12,2 C 91 % 1027,2 hPa 0,0 l/m 0,0 km/h (0 Bft) S-SW 194 0 min 0,000 mm 0 W/m -13,4 C -12,2 C 0,0 km/h (0 Bft) 100 %
_ Min-Zeit 06:20 06:20 06:30 14:30 14:20 - 00:00 - - - - - 06:20 06:20 00:10 08:10
Minimum _ -15,6 C -15,6 C -15,6 C 83 % 1025,8 hPa - 0,0 km/h (0 Bft) - - - - - -17,1 C -15,6 C 0,0 km/h (0 Bft) 87 %
_ Max-Zeit 14:50 14:50 14:50 12:10 11:00 00:00 10:50 - - 11:30 13:00 13:20 14:40 14:40 10:50 00:00
Maximum _ -5,7 C -5,8 C -5,7 C 92 % 1027,7 hPa 0,0 l/m 3,2 km/h
S-SW (1 Bft)
- - 10 min 0,051 mm 295 W/m -8,1 C -5,8 C 6,4 km/h
S-SW (2 Bft)
100 %
Durchschnitt _ -11,4 C -11,5 C -11,3 C 89 % 1026,5 hPa #0,0 l/m 0,1 km/h (0 Bft) S-SW - #3:40 h #0,254 mm 138 W/m -12,8 C -11,4 C 0,5 km/h (0 Bft) 98 %
PRIVATE WETTERSTATION BILLIGHEIM-ALLFELD - www.neckar-odenwald-wetter.de - Holger Sonntag